createdAt,value
2022-10-31T00:01:15.159Z,3.60
2022-10-31T00:03:41.767Z,3.83
2022-10-31T00:06:08.346Z,3.60
2022-10-31T00:08:35.400Z,4.55
2022-10-31T00:11:02.196Z,3.75
2022-10-31T00:13:28.868Z,4.00
2022-10-31T00:15:55.557Z,3.72
2022-10-31T00:18:22.444Z,3.97
2022-10-31T00:20:49.173Z,3.95
2022-10-31T00:23:15.763Z,3.83
2022-10-31T00:25:42.386Z,3.88
2022-10-31T00:28:12.052Z,4.03
2022-10-31T00:30:38.715Z,3.65
2022-10-31T00:33:06.283Z,4.25
2022-10-31T00:35:33.358Z,4.07
2022-10-31T00:38:00.318Z,3.35
2022-10-31T00:40:26.978Z,4.13
2022-10-31T00:42:54.269Z,4.35
2022-10-31T00:45:21.075Z,4.28
2022-10-31T00:47:48.134Z,4.20
2022-10-31T00:50:14.800Z,3.90
2022-10-31T00:52:41.448Z,3.80
2022-10-31T00:55:08.352Z,4.30
2022-10-31T00:57:35.082Z,4.03
2022-10-31T01:00:04.201Z,3.90
2022-10-31T01:02:30.962Z,4.15
2022-10-31T01:04:57.704Z,4.13
2022-10-31T01:07:24.402Z,3.60
2022-10-31T01:09:51.012Z,4.07
2022-10-31T01:12:17.707Z,3.65
2022-10-31T01:14:46.021Z,3.60
2022-10-31T01:17:14.345Z,3.72
2022-10-31T01:19:41.295Z,4.45
2022-10-31T01:22:08.155Z,4.35
2022-10-31T01:24:34.847Z,4.07
2022-10-31T01:27:02.750Z,3.55
2022-10-31T01:29:32.673Z,4.03
2022-10-31T01:31:59.783Z,4.45
2022-10-31T01:34:26.886Z,4.18
2022-10-31T01:36:53.794Z,3.60
2022-10-31T01:39:21.960Z,4.07
2022-10-31T01:41:51.907Z,3.85
2022-10-31T01:44:18.463Z,3.60
2022-10-31T01:46:59.019Z,3.75
2022-10-31T01:49:37.377Z,3.53
2022-10-31T01:52:37.681Z,4.00
2022-10-31T01:55:13.089Z,3.92
2022-10-31T01:57:43.435Z,4.25
2022-10-31T02:00:11.133Z,3.75
2022-10-31T02:02:41.644Z,3.90
2022-10-31T02:05:13.642Z,4.03
2022-10-31T02:08:00.748Z,3.53
2022-10-31T02:10:32.610Z,4.15
2022-10-31T02:13:02.924Z,4.20
2022-10-31T02:15:32.846Z,3.92
2022-10-31T02:18:00.620Z,3.85
2022-10-31T02:20:33.490Z,3.88
2022-10-31T02:23:29.589Z,4.07
2022-10-31T02:25:59.607Z,4.05
2022-10-31T02:28:45.728Z,4.40
2022-10-31T02:31:18.320Z,4.28
2022-10-31T02:33:53.227Z,3.85
2022-10-31T02:36:54.031Z,4.22
2022-10-31T02:39:27.799Z,3.72
2022-10-31T02:42:00.480Z,4.40
2022-10-31T02:44:46.426Z,4.65
2022-10-31T02:47:17.616Z,3.77
2022-10-31T02:50:17.184Z,4.40
2022-10-31T02:52:43.816Z,4.07
2022-10-31T02:55:25.547Z,4.10
2022-10-31T02:58:02.145Z,4.10
2022-10-31T03:00:39.055Z,4.03
2022-10-31T03:03:24.580Z,4.10
2022-10-31T03:05:51.323Z,4.20
2022-10-31T03:08:50.326Z,4.20
2022-10-31T03:11:22.208Z,4.00
2022-10-31T03:13:58.358Z,3.78
2022-10-31T03:16:38.816Z,3.67
2022-10-31T03:19:12.639Z,4.50
2022-10-31T03:21:50.643Z,3.97
2022-10-31T03:24:17.567Z,4.47
2022-10-31T03:26:49.227Z,4.20
2022-10-31T03:29:20.516Z,4.25
2022-10-31T03:31:55.736Z,4.63
2022-10-31T03:34:23.744Z,4.53
2022-10-31T03:36:53.159Z,4.35
2022-10-31T03:39:22.916Z,4.80
2022-10-31T03:42:06.191Z,4.20
2022-10-31T03:44:35.630Z,4.00
2022-10-31T03:47:05.125Z,4.55
2022-10-31T03:49:33.826Z,4.25
2022-10-31T03:52:19.560Z,4.13
2022-10-31T03:54:52.552Z,4.20
2022-10-31T03:57:34.790Z,3.92
2022-10-31T04:00:08.346Z,3.97
2022-10-31T04:02:54.901Z,4.10
2022-10-31T04:05:22.449Z,4.05
2022-10-31T04:07:54.496Z,4.53
2022-10-31T04:10:23.240Z,3.70
2022-10-31T04:12:57.988Z,4.00
2022-10-31T04:15:33.342Z,3.97
2022-10-31T04:18:02.586Z,4.30
2022-10-31T04:20:49.628Z,4.32
2022-10-31T04:23:23.454Z,4.25
2022-10-31T04:25:51.265Z,3.75
2022-10-31T04:30:51.593Z,4.25
2022-10-31T04:33:18.710Z,4.10
2022-10-31T04:35:47.404Z,4.17
2022-10-31T04:38:14.173Z,4.28
2022-10-31T04:40:41.511Z,3.83
2022-10-31T04:43:28.046Z,3.88
2022-10-31T04:45:54.809Z,4.78
2022-10-31T04:48:21.443Z,3.90
2022-10-31T04:50:48.083Z,4.53
2022-10-31T04:53:15.164Z,4.20
2022-10-31T04:56:01.986Z,4.32
2022-10-31T04:58:36.827Z,4.20
2022-10-31T05:01:07.239Z,3.95
2022-10-31T05:03:34.206Z,4.10
2022-10-31T05:06:00.804Z,3.80
2022-10-31T05:08:27.955Z,3.92
2022-10-31T05:10:57.370Z,4.18
2022-10-31T05:13:27.396Z,4.60
2022-10-31T05:16:12.339Z,4.60
2022-10-31T05:18:44.635Z,4.25
2022-10-31T05:21:29.157Z,4.15
2022-10-31T05:24:00.034Z,4.38
2022-10-31T05:26:27.594Z,4.82
2022-10-31T05:28:55.240Z,4.38
2022-10-31T05:31:22.049Z,4.47
2022-10-31T05:33:50.363Z,4.18
2022-10-31T05:36:25.956Z,3.65
2022-10-31T05:38:57.212Z,4.35
2022-10-31T05:41:26.117Z,4.20
2022-10-31T05:44:01.032Z,4.18
2022-10-31T05:46:30.001Z,4.22
2022-10-31T05:49:34.886Z,4.38
2022-10-31T05:52:20.157Z,4.22
2022-10-31T05:54:54.378Z,4.13
2022-10-31T05:57:21.608Z,4.40
2022-10-31T05:59:52.418Z,4.35
2022-10-31T06:02:22.739Z,4.10
2022-10-31T06:05:16.143Z,4.50
2022-10-31T06:07:43.350Z,4.50
2022-10-31T06:10:10.161Z,5.03
2022-10-31T06:12:41.669Z,4.40
2022-10-31T06:15:31.247Z,5.30
2022-10-31T06:18:04.204Z,4.47
2022-10-31T06:20:35.020Z,4.70
2022-10-31T06:23:04.585Z,5.25
2022-10-31T06:25:33.857Z,5.33
2022-10-31T06:28:00.665Z,5.03
2022-10-31T06:30:36.601Z,5.10
2022-10-31T06:33:05.377Z,4.70
2022-10-31T06:35:35.933Z,4.65
2022-10-31T06:38:02.790Z,4.72
2022-10-31T06:40:41.711Z,5.07
2022-10-31T06:43:24.092Z,4.65
2022-10-31T06:46:03.810Z,4.75
2022-10-31T06:48:46.022Z,5.18
2022-10-31T06:51:35.690Z,5.40
2022-10-31T06:54:02.438Z,5.15
2022-10-31T06:56:29.165Z,5.47
2022-10-31T06:58:57.847Z,4.97
2022-10-31T07:01:43.379Z,4.80
2022-10-31T07:04:11.517Z,4.60
2022-10-31T07:06:38.538Z,5.10
2022-10-31T07:09:05.812Z,4.97
2022-10-31T07:11:32.470Z,4.50
2022-10-31T07:13:59.749Z,4.70
2022-10-31T07:16:26.997Z,4.53
2022-10-31T07:18:53.804Z,4.13
2022-10-31T07:21:20.897Z,5.00
2022-10-31T07:23:50.636Z,4.72
2022-10-31T07:26:43.370Z,4.43
2022-10-31T07:29:10.656Z,4.05
2022-10-31T07:31:37.380Z,4.30
2022-10-31T07:34:10.449Z,4.75
2022-10-31T07:36:55.260Z,4.18
2022-10-31T07:39:21.838Z,4.10
2022-10-31T07:41:48.408Z,4.43
2022-10-31T07:44:18.713Z,4.43
2022-10-31T07:47:05.260Z,3.88
2022-10-31T07:49:50.490Z,4.13
2022-10-31T07:52:35.945Z,4.03
2022-10-31T07:55:21.168Z,3.80
2022-10-31T07:57:57.150Z,4.15
2022-10-31T08:00:24.051Z,3.53
2022-10-31T08:02:58.451Z,3.45
2022-10-31T08:05:45.805Z,3.30
2022-10-31T08:08:47.514Z,3.75
2022-10-31T08:11:14.146Z,4.35
2022-10-31T08:13:41.441Z,4.13
2022-10-31T08:16:09.513Z,3.88
2022-10-31T08:18:43.511Z,3.85
2022-10-31T08:21:13.572Z,3.40
2022-10-31T08:23:40.169Z,3.20
2022-10-31T08:26:07.865Z,4.07
2022-10-31T08:28:34.534Z,3.42
2022-10-31T08:31:01.222Z,3.72
2022-10-31T08:33:40.087Z,4.10
2022-10-31T08:36:18.654Z,3.75
2022-10-31T08:39:12.232Z,3.88
2022-10-31T08:41:39.543Z,3.75
2022-10-31T08:44:10.646Z,3.10
2022-10-31T08:46:37.590Z,3.15
2022-10-31T08:49:04.324Z,3.88
2022-10-31T08:51:30.986Z,3.47
2022-10-31T08:53:57.804Z,3.65
2022-10-31T08:56:56.866Z,3.63
2022-10-31T08:59:44.839Z,3.60
2022-10-31T09:02:20.364Z,3.40
2022-10-31T09:04:49.134Z,3.60
2022-10-31T09:07:20.939Z,3.65
2022-10-31T09:09:48.234Z,3.47
2022-10-31T09:12:15.003Z,3.58
2022-10-31T09:15:08.324Z,4.07
2022-10-31T09:17:47.821Z,3.53
2022-10-31T09:20:34.555Z,4.45
2022-10-31T09:23:07.125Z,3.65
2022-10-31T09:25:36.243Z,4.60
2022-10-31T09:28:28.621Z,4.40
2022-10-31T09:30:59.364Z,4.40
2022-10-31T09:33:44.762Z,4.53
2022-10-31T09:36:31.291Z,4.53
2022-10-31T09:38:58.011Z,3.65
2022-10-31T09:41:42.974Z,4.40
2022-10-31T09:44:27.964Z,4.28
2022-10-31T09:47:28.078Z,4.35
2022-10-31T09:50:23.052Z,4.40
2022-10-31T09:52:55.830Z,5.25
2022-10-31T09:55:48.076Z,4.43
2022-10-31T09:58:21.070Z,4.22
2022-10-31T10:00:49.263Z,4.32
2022-10-31T10:03:34.151Z,4.43
2022-10-31T10:06:20.378Z,4.03
2022-10-31T10:09:05.860Z,3.97
2022-10-31T10:12:20.962Z,4.05
2022-10-31T10:15:15.186Z,3.85
2022-10-31T10:18:01.651Z,4.63
2022-10-31T10:21:00.325Z,4.20
2022-10-31T10:23:29.595Z,4.10
2022-10-31T10:26:11.205Z,4.18
2022-10-31T10:28:41.868Z,3.95
2022-10-31T10:31:14.175Z,4.40
2022-10-31T10:33:58.835Z,4.32
2022-10-31T10:36:43.768Z,4.03
2022-10-31T10:39:46.280Z,4.57
2022-10-31T10:42:34.883Z,4.15
2022-10-31T10:45:33.254Z,4.30
2022-10-31T10:48:11.275Z,4.40
2022-10-31T10:50:49.292Z,4.28
2022-10-31T10:54:10.431Z,3.70
2022-10-31T10:56:37.241Z,4.28
2022-10-31T10:59:04.754Z,4.03
2022-10-31T11:01:31.369Z,3.80
2022-10-31T11:03:58.041Z,3.75
2022-10-31T11:06:29.126Z,4.60
2022-10-31T11:08:55.730Z,3.97
2022-10-31T11:11:31.976Z,3.67
2022-10-31T11:14:13.189Z,3.78
2022-10-31T11:16:43.331Z,3.35
2022-10-31T11:19:18.745Z,3.40
2022-10-31T11:21:52.659Z,4.00
2022-10-31T11:24:27.376Z,3.58
2022-10-31T11:27:12.540Z,3.90
2022-10-31T11:29:39.103Z,3.80
2022-10-31T11:32:05.741Z,4.00
2022-10-31T11:34:46.843Z,4.13
2022-10-31T11:37:18.151Z,3.72
2022-10-31T11:39:54.440Z,3.60
2022-10-31T11:42:27.654Z,3.40
2022-10-31T11:44:55.951Z,3.97
2022-10-31T11:47:33.567Z,3.60
2022-10-31T11:50:09.733Z,3.63
2022-10-31T11:52:40.631Z,3.58
2022-10-31T11:55:13.209Z,3.63
2022-10-31T11:57:47.670Z,3.60
2022-10-31T12:03:39.621Z,3.80
2022-10-31T12:06:13.161Z,3.97
2022-10-31T12:08:42.155Z,3.65
2022-10-31T12:11:30.513Z,3.60
2022-10-31T12:14:08.565Z,4.53
2022-10-31T12:16:42.979Z,3.60
2022-10-31T12:19:35.927Z,3.90
2022-10-31T12:22:10.294Z,3.75
2022-10-31T12:24:38.013Z,3.72
2022-10-31T12:27:49.574Z,4.18
2022-10-31T12:30:41.830Z,4.10
2022-10-31T12:33:19.263Z,4.07
2022-10-31T12:36:04.788Z,3.95
2022-10-31T12:38:42.219Z,3.35
2022-10-31T12:41:24.131Z,3.42
2022-10-31T12:44:11.800Z,3.97
2022-10-31T12:46:57.461Z,3.85
2022-10-31T12:49:43.700Z,3.70
2022-10-31T12:52:28.471Z,3.60
2022-10-31T12:55:01.096Z,3.22
2022-10-31T12:57:52.215Z,3.60
2022-10-31T13:00:20.473Z,3.53
2022-10-31T13:02:47.028Z,3.47
2022-10-31T13:05:33.489Z,4.00
2022-10-31T13:08:09.541Z,4.00
2022-10-31T13:11:07.124Z,3.42
2022-10-31T13:13:45.298Z,3.47
2022-10-31T13:16:17.516Z,3.45
2022-10-31T13:18:54.655Z,3.90
2022-10-31T13:21:26.164Z,3.85
2022-10-31T13:23:53.319Z,3.80
2022-10-31T13:26:41.930Z,4.15
2022-10-31T13:29:32.691Z,3.63
2022-10-31T13:32:01.909Z,4.00
2022-10-31T13:34:33.735Z,3.58
2022-10-31T13:37:25.141Z,3.60
2022-10-31T13:40:25.242Z,3.75
2022-10-31T13:43:03.865Z,4.00
2022-10-31T13:45:30.643Z,3.70
2022-10-31T13:48:07.388Z,4.10
2022-10-31T13:50:34.289Z,3.58
2022-10-31T13:53:21.840Z,4.28
2022-10-31T13:55:51.420Z,3.80
2022-10-31T13:58:23.465Z,3.30
2022-10-31T14:01:11.776Z,3.40
2022-10-31T14:06:40.950Z,3.30
2022-10-31T14:09:20.699Z,3.38
2022-10-31T14:11:49.287Z,3.42
2022-10-31T14:14:16.946Z,3.65
2022-10-31T14:16:47.752Z,3.10
2022-10-31T14:19:21.814Z,3.20
2022-10-31T14:21:50.241Z,3.13
2022-10-31T14:24:31.982Z,3.50
2022-10-31T14:27:27.255Z,3.83
2022-10-31T14:29:53.938Z,3.92
2022-10-31T14:32:26.578Z,3.50
2022-10-31T14:34:56.387Z,3.38
2022-10-31T14:37:53.743Z,3.88
2022-10-31T14:40:23.093Z,3.22
2022-10-31T14:42:49.630Z,3.58
2022-10-31T14:45:23.175Z,3.22
2022-10-31T14:48:06.882Z,3.53
2022-10-31T14:50:54.166Z,3.00
2022-10-31T14:53:24.753Z,3.17
2022-10-31T14:55:54.921Z,2.95
2022-10-31T14:58:26.079Z,3.50
2022-10-31T15:00:57.377Z,3.58
2022-10-31T15:03:28.356Z,3.40
2022-10-31T15:05:59.251Z,3.03
2022-10-31T15:08:33.575Z,3.50
2022-10-31T15:11:04.562Z,3.67
2022-10-31T15:13:31.306Z,3.55
2022-10-31T15:15:58.150Z,3.40
2022-10-31T15:18:27.164Z,3.47
2022-10-31T15:20:56.144Z,3.25
2022-10-31T15:23:26.225Z,3.50
2022-10-31T15:26:00.802Z,3.03
2022-10-31T15:28:28.645Z,3.20
2022-10-31T15:30:59.757Z,3.78
2022-10-31T15:33:38.352Z,3.20
2022-10-31T15:36:06.921Z,3.63
2022-10-31T15:38:33.989Z,3.20
2022-10-31T15:41:04.445Z,3.53
2022-10-31T15:43:37.453Z,3.53
2022-10-31T15:46:07.794Z,3.40
2022-10-31T15:48:35.608Z,3.85
2022-10-31T15:51:03.518Z,3.58
2022-10-31T15:53:46.047Z,4.00
2022-10-31T15:56:21.290Z,4.05
2022-10-31T15:58:50.559Z,3.67
2022-10-31T16:01:35.401Z,3.97
2022-10-31T16:04:23.307Z,3.42
2022-10-31T16:07:23.678Z,3.90
2022-10-31T16:09:59.855Z,3.25
2022-10-31T16:12:38.618Z,3.83
2022-10-31T16:15:16.072Z,3.42
2022-10-31T16:17:46.314Z,3.65
2022-10-31T16:20:29.975Z,3.10
2022-10-31T16:22:58.712Z,3.50
2022-10-31T16:25:35.084Z,3.25
2022-10-31T16:28:18.251Z,3.40
2022-10-31T16:30:50.226Z,2.97
2022-10-31T16:33:37.305Z,3.72
2022-10-31T16:36:35.309Z,4.85
2022-10-31T16:39:03.824Z,4.28
2022-10-31T16:41:30.485Z,4.00
2022-10-31T16:43:57.122Z,3.25
2022-10-31T16:46:28.567Z,3.55
2022-10-31T16:48:55.495Z,3.50
2022-10-31T16:51:22.275Z,3.83
2022-10-31T16:53:52.063Z,3.65
2022-10-31T16:56:25.061Z,3.72
2022-10-31T16:58:51.706Z,5.10
2022-10-31T17:01:18.435Z,4.60
2022-10-31T17:03:45.175Z,4.50
2022-10-31T17:06:13.607Z,4.00
2022-10-31T17:08:40.505Z,4.13
2022-10-31T17:11:14.638Z,4.25
2022-10-31T17:13:41.401Z,3.97
2022-10-31T17:16:08.326Z,4.93
2022-10-31T17:18:34.951Z,4.80
2022-10-31T17:21:04.529Z,3.70
2022-10-31T17:23:33.267Z,3.95
2022-10-31T17:26:00.283Z,4.10
2022-10-31T17:28:27.123Z,3.88
2022-10-31T17:30:59.158Z,5.57
2022-10-31T17:33:25.902Z,5.80
2022-10-31T17:35:52.480Z,5.18
2022-10-31T17:38:19.225Z,3.75
2022-10-31T17:40:46.068Z,3.80
2022-10-31T17:43:12.842Z,4.22
2022-10-31T17:45:40.944Z,4.03
2022-10-31T17:48:10.748Z,3.97
2022-10-31T17:50:37.383Z,3.72
2022-10-31T17:53:04.362Z,3.45
2022-10-31T17:55:36.098Z,3.72
2022-10-31T17:58:04.872Z,4.72
2022-10-31T18:00:31.563Z,4.57
2022-10-31T18:02:58.354Z,4.55
2022-10-31T18:05:25.313Z,4.47
2022-10-31T18:07:51.987Z,4.55
2022-10-31T18:10:18.674Z,4.90
2022-10-31T18:12:45.576Z,5.18
2022-10-31T18:15:12.175Z,5.18
2022-10-31T18:17:42.017Z,4.82
2022-10-31T18:20:09.885Z,5.32
2022-10-31T18:22:36.890Z,5.00
2022-10-31T18:25:04.122Z,5.13
2022-10-31T18:27:30.714Z,4.85
2022-10-31T18:29:57.360Z,5.63
2022-10-31T18:32:24.022Z,5.63
2022-10-31T18:34:50.615Z,5.63
2022-10-31T18:37:17.287Z,5.75
2022-10-31T18:39:43.953Z,6.03
2022-10-31T18:42:10.505Z,5.75
2022-10-31T18:44:38.234Z,5.28
2022-10-31T18:47:04.909Z,5.90
2022-10-31T18:49:32.842Z,5.07
2022-10-31T18:52:00.039Z,5.85
2022-10-31T18:54:26.713Z,5.97
2022-10-31T18:56:53.424Z,5.60
2022-10-31T18:59:20.100Z,5.70
2022-10-31T19:01:46.940Z,5.53
2022-10-31T19:04:13.799Z,5.40
2022-10-31T19:06:40.471Z,5.07
2022-10-31T19:09:09.618Z,5.78
2022-10-31T19:11:37.774Z,5.55
2022-10-31T19:14:05.568Z,5.53
2022-10-31T19:16:32.156Z,4.60
2022-10-31T19:19:00.137Z,4.55
2022-10-31T19:21:27.520Z,4.35
2022-10-31T19:23:56.404Z,4.75
2022-10-31T19:26:24.804Z,4.88
2022-10-31T19:28:51.895Z,4.00
2022-10-31T19:31:19.041Z,4.40
2022-10-31T19:33:46.522Z,4.03
2022-10-31T19:36:15.434Z,3.95
2022-10-31T19:38:46.931Z,3.72
2022-10-31T19:41:19.506Z,3.67
2022-10-31T19:43:47.027Z,3.38
2022-10-31T19:46:22.218Z,3.95
2022-10-31T19:48:55.236Z,3.97
2022-10-31T19:51:22.411Z,3.42
2022-10-31T19:53:52.442Z,3.80
2022-10-31T19:56:24.697Z,3.80
2022-10-31T19:58:51.354Z,3.72
2022-10-31T20:01:23.708Z,4.22
2022-10-31T20:03:50.883Z,3.53
2022-10-31T20:06:32.890Z,3.25
2022-10-31T20:09:02.286Z,3.40
2022-10-31T20:11:29.953Z,3.88
2022-10-31T20:13:58.129Z,3.47
2022-10-31T20:16:26.172Z,3.70
2022-10-31T20:18:52.968Z,3.03
2022-10-31T20:21:25.049Z,3.35
2022-10-31T20:23:59.596Z,3.60
2022-10-31T20:26:26.963Z,2.97
2022-10-31T20:28:56.012Z,3.58
2022-10-31T20:31:25.207Z,3.13
2022-10-31T20:33:52.481Z,3.72
2022-10-31T20:36:20.997Z,3.95
2022-10-31T20:38:47.915Z,3.72
2022-10-31T20:41:15.393Z,3.58
2022-10-31T20:43:42.197Z,3.75
2022-10-31T20:46:18.017Z,3.58
2022-10-31T20:48:44.913Z,3.50
2022-10-31T20:53:42.813Z,3.40
2022-10-31T20:56:15.435Z,3.72
2022-10-31T20:58:43.450Z,3.55
2022-10-31T21:01:16.816Z,3.42
2022-10-31T21:03:44.526Z,3.30
2022-10-31T21:06:12.247Z,3.67
2022-10-31T21:08:39.913Z,3.38
2022-10-31T21:11:09.974Z,3.30
2022-10-31T21:13:40.695Z,3.17
2022-10-31T21:16:12.513Z,3.47
2022-10-31T21:18:41.242Z,3.30
2022-10-31T21:21:30.652Z,3.50
2022-10-31T21:24:05.183Z,2.97
2022-10-31T21:26:36.594Z,3.08
2022-10-31T21:29:04.917Z,3.58
2022-10-31T21:31:32.105Z,3.50
2022-10-31T21:33:58.791Z,3.20
2022-10-31T21:36:26.279Z,3.45
2022-10-31T21:38:54.384Z,3.85
2022-10-31T21:41:22.369Z,2.97
2022-10-31T21:43:51.294Z,2.90
2022-10-31T21:46:23.339Z,3.35
2022-10-31T21:48:50.122Z,3.47
2022-10-31T21:51:22.534Z,3.30
2022-10-31T21:54:08.460Z,3.45
2022-10-31T21:56:35.639Z,3.28
2022-10-31T21:59:02.731Z,3.28
2022-10-31T22:01:29.903Z,3.42
2022-10-31T22:03:57.596Z,3.20
2022-10-31T22:06:26.572Z,3.53
2022-10-31T22:08:54.448Z,3.78
2022-10-31T22:11:21.883Z,3.60
2022-10-31T22:13:49.905Z,3.45
2022-10-31T22:16:19.356Z,3.53
2022-10-31T22:18:46.930Z,3.28
2022-10-31T22:21:16.312Z,3.60
2022-10-31T22:23:43.601Z,3.45
2022-10-31T22:26:16.165Z,3.70
2022-10-31T22:28:47.984Z,3.70
2022-10-31T22:31:17.806Z,3.50
2022-10-31T22:33:45.678Z,3.22
2022-10-31T22:36:15.404Z,3.35
2022-10-31T22:38:43.019Z,3.42
2022-10-31T22:41:12.165Z,3.95
2022-10-31T22:43:39.354Z,3.78
2022-10-31T22:46:08.434Z,3.28
2022-10-31T22:48:39.039Z,3.65
2022-10-31T22:51:09.536Z,3.65
2022-10-31T22:53:37.695Z,3.22
2022-10-31T22:56:05.879Z,3.75
2022-10-31T22:58:34.303Z,3.30
2022-10-31T23:01:06.720Z,3.15
2022-10-31T23:03:33.602Z,3.67
2022-10-31T23:06:02.110Z,3.47
2022-10-31T23:08:30.152Z,3.70
2022-10-31T23:10:57.071Z,3.55
2022-10-31T23:13:42.560Z,3.63
2022-10-31T23:16:10.973Z,3.85
2022-10-31T23:18:49.683Z,3.80
2022-10-31T23:21:37.232Z,3.30
2022-10-31T23:24:04.248Z,3.45
2022-10-31T23:26:49.156Z,4.18
2022-10-31T23:29:15.754Z,3.60
2022-10-31T23:31:42.310Z,4.15
2022-10-31T23:34:09.073Z,4.32
2022-10-31T23:36:35.649Z,4.10
2022-10-31T23:39:02.304Z,4.03
2022-10-31T23:41:28.857Z,4.03
2022-10-31T23:43:55.575Z,3.55
2022-10-31T23:46:22.131Z,3.85
2022-10-31T23:48:49.541Z,4.43
2022-10-31T23:51:16.474Z,4.03
2022-10-31T23:53:46.366Z,4.15
2022-10-31T23:56:13.922Z,4.50
2022-10-31T23:58:41.075Z,3.85
